Time,TemperatureF,DewpointF,PressureIn,WindDirection,WindDirectionDegrees,WindSpeedMPH,WindSpeedGustMPH,Humidity,HourlyPrecipIn,Conditions,Clouds,dailyrainin,SoftwareType,DateUTC
2013-10-27 00:02:00,50.2,28.0,29.96,West,268,0.0,0.0,42,0.00,,,0.00,VWS V14.01,2013-10-27 07:02:00,
2013-10-27 00:07:00,50.2,28.6,29.96,West,268,0.0,0.0,43,0.00,,,0.00,VWS V14.01,2013-10-27 07:07:00,
2013-10-27 00:12:00,50.2,28.6,29.96,West,268,0.0,0.0,43,0.00,,,0.00,VWS V14.01,2013-10-27 07:12:00,
2013-10-27 00:17:00,50.4,29.3,29.96,WSW,250,0.0,0.0,44,0.00,,,0.00,VWS V14.01,2013-10-27 07:17:00,
2013-10-27 00:22:00,50.5,30.0,29.96,SSW,208,0.0,0.0,45,0.00,,,0.00,VWS V14.01,2013-10-27 07:22:00,
2013-10-27 00:27:00,50.7,30.2,29.96,SSW,208,0.0,0.0,45,0.00,,,0.00,VWS V14.01,2013-10-27 07:27:00,
2013-10-27 00:32:00,50.7,30.7,29.96,SE,143,0.0,0.0,46,0.00,,,0.00,VWS V14.01,2013-10-27 07:32:00,
2013-10-27 00:37:00,50.5,30.5,29.96,SE,143,0.0,0.0,46,0.00,,,0.00,VWS V14.01,2013-10-27 07:37:00,
2013-10-27 00:42:00,50.4,30.4,29.96,SE,144,0.0,0.0,46,0.00,,,0.00,VWS V14.01,2013-10-27 07:42:00,
2013-10-27 00:47:00,50.4,30.9,29.96,SE,143,0.0,0.0,47,0.00,,,0.00,VWS V14.01,2013-10-27 07:47:00,
2013-10-27 00:52:00,50.4,30.9,29.96,SE,143,0.0,0.0,47,0.00,,,0.00,VWS V14.01,2013-10-27 07:52:00,
2013-10-27 00:57:00,50.4,30.9,29.96,SE,143,0.0,0.0,47,0.00,,,0.00,VWS V14.01,2013-10-27 07:57:00,
2013-10-27 01:02:00,50.2,30.8,29.96,SE,143,0.0,0.0,47,0.00,,,0.00,VWS V14.01,2013-10-27 08:02:00,
2013-10-27 01:07:00,50.0,30.6,29.96,SE,143,0.0,0.0,47,0.00,,,0.00,VWS V14.01,2013-10-27 08:07:00,
2013-10-27 01:12:00,50.0,31.1,29.96,SE,143,0.0,0.0,48,0.00,,,0.00,VWS V14.01,2013-10-27 08:12:00,
2013-10-27 01:17:00,50.0,31.1,29.96,SE,143,0.0,0.0,48,0.00,,,0.00,VWS V14.01,2013-10-27 08:17:00,
2013-10-27 01:22:00,50.0,31.1,29.96,SE,143,0.0,0.0,48,0.00,,,0.00,VWS V14.01,2013-10-27 08:22:00,
2013-10-27 01:27:00,50.0,31.1,29.96,SE,143,0.0,0.0,48,0.00,,,0.00,VWS V14.01,2013-10-27 08:27:00,
2013-10-27 01:32:00,50.0,31.1,29.96,SE,143,0.0,0.0,48,0.00,,,0.00,VWS V14.01,2013-10-27 08:32:00,
2013-10-27 01:37:00,50.0,31.1,29.96,SE,143,0.0,0.0,48,0.00,,,0.00,VWS V14.01,2013-10-27 08:37:00,
2013-10-27 01:42:00,50.2,31.8,29.96,SE,143,0.0,0.0,49,0.00,,,0.00,VWS V14.01,2013-10-27 08:42:00,
2013-10-27 01:47:00,50.4,31.9,29.96,SE,143,0.0,0.0,49,0.00,,,0.00,VWS V14.01,2013-10-27 08:47:00,
2013-10-27 01:52:00,50.5,32.1,29.96,SW,220,0.0,0.0,49,0.00,,,0.00,VWS V14.01,2013-10-27 08:52:00,
2013-10-27 01:57:00,50.5,32.6,29.96,SW,220,0.0,0.0,50,0.00,,,0.00,VWS V14.01,2013-10-27 08:57:00,
2013-10-27 02:02:00,50.5,32.6,29.96,SW,220,0.0,0.0,50,0.00,,,0.00,VWS V14.01,2013-10-27 09:02:00,
2013-10-27 02:07:00,50.5,32.6,29.96,SSW,192,0.0,0.0,50,0.00,,,0.00,VWS V14.01,2013-10-27 09:07:00,
2013-10-27 02:12:00,50.5,32.6,29.96,SW,225,0.0,2.2,50,0.00,,,0.00,VWS V14.01,2013-10-27 09:12:00,
2013-10-27 02:17:00,50.7,33.3,29.96,SSW,200,3.1,3.1,51,0.00,,,0.00,VWS V14.01,2013-10-27 09:17:00,
2013-10-27 02:22:00,50.7,33.3,29.96,SW,230,0.0,2.2,51,0.00,,,0.00,VWS V14.01,2013-10-27 09:22:00,
2013-10-27 02:27:00,50.9,33.9,29.96,SSW,212,2.2,2.2,52,0.00,,,0.00,VWS V14.01,2013-10-27 09:27:00,
2013-10-27 02:32:00,50.9,33.9,29.96,South,191,0.0,2.2,52,0.00,,,0.00,VWS V14.01,2013-10-27 09:32:00,
2013-10-27 02:37:00,50.9,34.4,29.93,SSW,213,0.0,0.0,53,0.00,,,0.00,VWS V14.01,2013-10-27 09:37:00,
2013-10-27 02:42:00,50.9,34.4,29.93,SW,228,3.1,3.1,53,0.00,,,0.00,VWS V14.01,2013-10-27 09:42:00,
2013-10-27 02:47:00,50.7,34.2,29.93,SW,222,3.6,3.6,53,0.00,,,0.00,VWS V14.01,2013-10-27 09:47:00,
2013-10-27 02:52:00,50.7,34.7,29.93,SW,224,2.7,2.7,54,0.00,,,0.00,VWS V14.01,2013-10-27 09:52:00,
2013-10-27 02:57:00,50.7,34.7,29.93,SW,222,0.0,0.0,54,0.00,,,0.00,VWS V14.01,2013-10-27 09:57:00,
2013-10-27 03:02:00,50.7,35.2,29.93,WSW,240,2.2,2.7,55,0.00,,,0.00,VWS V14.01,2013-10-27 10:02:00,
2013-10-27 03:07:00,50.7,35.2,29.93,SW,218,0.0,0.0,55,0.00,,,0.00,VWS V14.01,2013-10-27 10:07:00,
2013-10-27 03:12:00,50.7,35.2,29.93,SW,224,2.2,2.7,55,0.00,,,0.00,VWS V14.01,2013-10-27 10:12:00,
2013-10-27 03:17:00,50.7,35.6,29.93,SW,220,2.2,2.7,56,0.00,,,0.00,VWS V14.01,2013-10-27 10:17:00,
2013-10-27 03:22:00,50.7,35.6,29.93,SW,220,0.0,2.7,56,0.00,,,0.00,VWS V14.01,2013-10-27 10:22:00,
2013-10-27 03:27:00,50.5,35.9,29.93,SW,216,2.7,2.7,57,0.00,,,0.00,VWS V14.01,2013-10-27 10:27:00,
2013-10-27 03:32:00,50.7,36.1,29.93,SW,221,3.6,3.6,57,0.00,,,0.00,VWS V14.01,2013-10-27 10:32:00,
2013-10-27 03:37:00,50.7,36.5,29.93,SSW,210,2.7,4.0,58,0.00,,,0.00,VWS V14.01,2013-10-27 10:37:00,
2013-10-27 03:42:00,50.7,36.9,29.93,SSW,199,3.1,3.1,59,0.00,,,0.00,VWS V14.01,2013-10-27 10:42:00,
2013-10-27 03:47:00,50.5,36.8,29.93,SSW,195,4.0,4.9,59,0.00,,,0.00,VWS V14.01,2013-10-27 10:47:00,
2013-10-27 03:52:00,50.5,37.2,29.93,SW,219,3.1,4.0,60,0.00,,,0.00,VWS V14.01,2013-10-27 10:52:00,
2013-10-27 03:57:00,50.5,37.6,29.93,SSW,212,3.1,3.1,61,0.00,,,0.00,VWS V14.01,2013-10-27 10:57:00,
2013-10-27 04:02:00,50.7,37.8,29.93,SW,218,4.0,4.0,61,0.00,,,0.00,VWS V14.01,2013-10-27 11:02:00,
2013-10-27 04:07:00,50.5,38.0,29.93,SW,219,3.1,3.6,62,0.00,,,0.00,VWS V14.01,2013-10-27 11:07:00,
2013-10-27 04:12:00,50.4,37.8,29.93,SW,225,2.7,4.0,62,0.00,,,0.00,VWS V14.01,2013-10-27 11:12:00,
2013-10-27 04:17:00,50.4,38.3,29.93,SW,234,2.7,3.6,63,0.00,,,0.00,VWS V14.01,2013-10-27 11:17:00,
2013-10-27 04:22:00,50.4,38.7,29.93,SW,218,3.1,3.1,64,0.00,,,0.00,VWS V14.01,2013-10-27 11:22:00,
2013-10-27 04:27:00,50.4,39.1,29.93,SW,232,3.6,3.6,65,0.00,,,0.00,VWS V14.01,2013-10-27 11:27:00,
2013-10-27 04:32:00,50.4,39.1,29.93,SSW,193,0.0,3.1,65,0.00,,,0.00,VWS V14.01,2013-10-27 11:32:00,
2013-10-27 04:37:00,50.4,39.1,29.90,SSW,204,2.7,2.7,65,0.00,,,0.00,VWS V14.01,2013-10-27 11:37:00,
2013-10-27 04:42:00,50.4,39.5,29.90,SW,236,3.6,3.6,66,0.00,,,0.00,VWS V14.01,2013-10-27 11:42:00,
2013-10-27 04:47:00,50.4,39.5,29.90,SSW,197,2.2,2.2,66,0.00,,,0.00,VWS V14.01,2013-10-27 11:47:00,
2013-10-27 04:52:00,50.4,39.8,29.90,SW,229,3.1,3.1,67,0.00,,,0.00,VWS V14.01,2013-10-27 11:52:00,
2013-10-27 04:57:00,50.4,39.8,29.90,South,185,3.6,3.6,67,0.00,,,0.00,VWS V14.01,2013-10-27 11:57:00,
2013-10-27 05:02:00,50.4,39.8,29.90,SSW,205,2.7,4.9,67,0.00,,,0.00,VWS V14.01,2013-10-27 12:02:00,
2013-10-27 05:07:00,50.4,40.2,29.90,SW,217,3.1,4.0,68,0.00,,,0.00,VWS V14.01,2013-10-27 12:07:00,
2013-10-27 05:12:00,50.4,40.2,29.90,SSW,204,3.6,4.0,68,0.00,,,0.00,VWS V14.01,2013-10-27 12:12:00,
2013-10-27 05:17:00,50.4,40.2,29.90,SSW,205,3.6,4.0,68,0.00,,,0.00,VWS V14.01,2013-10-27 12:17:00,
2013-10-27 05:22:00,50.4,40.6,29.90,SSW,199,4.0,4.0,69,0.00,,,0.00,VWS V14.01,2013-10-27 12:22:00,
2013-10-27 05:27:00,50.4,40.6,29.90,SW,229,0.0,2.7,69,0.00,,,0.00,VWS V14.01,2013-10-27 12:27:00,
2013-10-27 05:32:00,50.4,40.6,29.90,SSW,204,2.2,4.0,69,0.00,,,0.00,VWS V14.01,2013-10-27 12:32:00,
2013-10-27 05:37:00,50.4,40.6,29.90,SW,223,0.0,3.6,69,0.00,,,0.00,VWS V14.01,2013-10-27 12:37:00,
2013-10-27 05:42:00,50.4,41.0,29.90,SSW,203,3.6,4.0,70,0.00,,,0.00,VWS V14.01,2013-10-27 12:42:00,
2013-10-27 05:47:00,50.4,41.0,29.90,SE,127,3.1,4.9,70,0.00,,,0.00,VWS V14.01,2013-10-27 12:47:00,
2013-10-27 05:52:00,50.4,41.0,29.90,South,180,2.7,3.6,70,0.00,,,0.00,VWS V14.01,2013-10-27 12:52:00,
2013-10-27 05:57:00,50.5,41.5,29.90,SSW,198,0.0,3.1,71,0.00,,,0.00,VWS V14.01,2013-10-27 12:57:00,
2013-10-27 06:02:00,50.5,41.5,29.90,SSE,162,4.0,4.0,71,0.00,,,0.00,VWS V14.01,2013-10-27 13:02:00,
2013-10-27 06:07:00,50.5,41.5,29.90,South,182,0.0,0.0,71,0.00,,,0.00,VWS V14.01,2013-10-27 13:07:00,
2013-10-27 06:12:00,50.5,41.5,29.90,South,180,3.6,3.6,71,0.00,,,0.00,VWS V14.01,2013-10-27 13:12:00,
2013-10-27 06:17:00,50.5,41.9,29.90,SW,233,2.2,2.2,72,0.00,,,0.00,VWS V14.01,2013-10-27 13:17:00,
2013-10-27 06:22:00,50.7,42.0,29.90,SW,226,3.1,3.1,72,0.00,,,0.00,VWS V14.01,2013-10-27 13:22:00,
2013-10-27 06:27:00,50.7,42.0,29.90,SSW,209,4.0,4.0,72,0.00,,,0.00,VWS V14.01,2013-10-27 13:27:00,
2013-10-27 06:32:00,50.7,42.0,29.90,SW,223,2.7,4.9,72,0.00,,,0.00,VWS V14.01,2013-10-27 13:32:00,
2013-10-27 06:37:00,50.9,42.2,29.93,SSW,200,3.1,3.1,72,0.00,,,0.00,VWS V14.01,2013-10-27 13:37:00,
2013-10-27 06:42:00,50.7,42.0,29.93,SSW,194,3.6,3.6,72,0.00,,,0.00,VWS V14.01,2013-10-27 13:42:00,
2013-10-27 06:47:00,50.7,42.4,29.93,SSW,206,4.0,4.0,73,0.00,,,0.00,VWS V14.01,2013-10-27 13:47:00,
2013-10-27 06:52:00,50.5,42.2,29.93,SE,142,3.1,3.1,73,0.00,,,0.00,VWS V14.01,2013-10-27 13:52:00,
2013-10-27 06:57:00,50.5,42.2,29.93,SW,216,4.0,4.0,73,0.00,,,0.00,VWS V14.01,2013-10-27 13:57:00,
2013-10-27 07:02:00,50.7,42.4,29.93,SW,215,0.0,4.0,73,0.00,,,0.00,VWS V14.01,2013-10-27 14:02:00,
2013-10-27 07:07:00,50.7,42.4,29.93,SSW,207,0.0,0.0,73,0.00,,,0.00,VWS V14.01,2013-10-27 14:07:00,
2013-10-27 07:12:00,50.7,42.8,29.93,WSW,238,4.0,4.0,74,0.00,,,0.00,VWS V14.01,2013-10-27 14:12:00,
2013-10-27 07:17:00,50.7,42.8,29.93,South,178,2.7,2.7,74,0.00,,,0.00,VWS V14.01,2013-10-27 14:17:00,
2013-10-27 07:22:00,50.9,42.9,29.90,SSE,163,2.2,4.0,74,0.00,,,0.00,VWS V14.01,2013-10-27 14:22:00,
2013-10-27 07:27:00,50.9,42.9,29.90,SSE,167,3.6,3.6,74,0.00,,,0.00,VWS V14.01,2013-10-27 14:27:00,
2013-10-27 07:32:00,50.9,42.9,29.90,SW,215,0.0,0.0,74,0.00,,,0.00,VWS V14.01,2013-10-27 14:32:00,
2013-10-27 07:37:00,50.9,42.9,29.90,SSW,208,2.7,2.7,74,0.00,,,0.00,VWS V14.01,2013-10-27 14:37:00,
2013-10-27 07:42:00,50.9,42.9,29.90,SE,142,2.7,2.7,74,0.00,,,0.00,VWS V14.01,2013-10-27 14:42:00,
2013-10-27 07:47:00,50.9,43.3,29.90,SE,139,2.2,4.9,75,0.00,,,0.00,VWS V14.01,2013-10-27 14:47:00,
2013-10-27 07:52:00,51.1,43.4,29.90,WSW,257,4.0,4.0,75,0.00,,,0.00,VWS V14.01,2013-10-27 14:52:00,
2013-10-27 07:57:00,51.1,43.4,29.90,SW,216,3.1,3.1,75,0.00,,,0.00,VWS V14.01,2013-10-27 14:57:00,
2013-10-27 08:02:00,51.1,43.4,29.90,WSW,247,3.6,3.6,75,0.00,,,0.00,VWS V14.01,2013-10-27 15:02:00,
2013-10-27 08:07:00,50.9,43.3,29.90,SSE,164,5.4,5.4,75,0.00,,,0.00,VWS V14.01,2013-10-27 15:07:00,
2013-10-27 08:12:00,50.9,43.3,29.90,SSW,208,2.2,3.1,75,0.00,,,0.00,VWS V14.01,2013-10-27 15:12:00,
2013-10-27 08:17:00,50.9,43.3,29.90,SSW,195,4.0,4.0,75,0.00,,,0.00,VWS V14.01,2013-10-27 15:17:00,
2013-10-27 08:22:00,51.1,43.4,29.90,SSE,166,3.1,5.4,75,0.00,,,0.00,VWS V14.01,2013-10-27 15:22:00,
2013-10-27 08:27:00,51.3,44.0,29.90,SSW,197,3.1,3.1,76,0.00,,,0.00,VWS V14.01,2013-10-27 15:27:00,
2013-10-27 08:32:00,51.3,44.0,29.90,WSW,251,4.9,4.9,76,0.00,,,0.00,VWS V14.01,2013-10-27 15:32:00,
2013-10-27 08:37:00,51.3,44.0,29.93,SW,214,5.4,5.4,76,0.00,,,0.00,VWS V14.01,2013-10-27 15:37:00,
2013-10-27 08:42:00,51.4,44.1,29.93,SSE,153,3.6,3.6,76,0.00,,,0.00,VWS V14.01,2013-10-27 15:42:00,
2013-10-27 08:47:00,51.4,44.1,29.93,SSW,202,3.6,6.3,76,0.00,,,0.00,VWS V14.01,2013-10-27 15:47:00,
2013-10-27 08:52:00,51.6,44.3,29.93,South,176,5.8,6.3,76,0.00,,,0.00,VWS V14.01,2013-10-27 15:52:00,
2013-10-27 08:57:00,51.6,44.3,29.93,SE,144,5.4,5.4,76,0.00,,,0.00,VWS V14.01,2013-10-27 15:57:00,
2013-10-27 09:02:00,51.6,44.7,29.93,SSW,202,3.1,3.1,77,0.00,,,0.00,VWS V14.01,2013-10-27 16:02:00,
2013-10-27 09:07:00,51.8,44.5,29.93,SW,236,5.8,5.8,76,0.00,,,0.00,VWS V14.01,2013-10-27 16:07:00,
2013-10-27 09:12:00,51.8,44.8,29.93,SW,221,5.4,5.4,77,0.00,,,0.00,VWS V14.01,2013-10-27 16:12:00,
2013-10-27 09:17:00,52.0,45.0,29.93,WSW,240,3.1,4.9,77,0.00,,,0.00,VWS V14.01,2013-10-27 16:17:00,
2013-10-27 09:22:00,52.0,45.0,29.90,SW,216,5.4,5.4,77,0.00,,,0.00,VWS V14.01,2013-10-27 16:22:00,
2013-10-27 09:27:00,52.2,45.2,29.90,SW,235,5.4,6.3,77,0.00,,,0.00,VWS V14.01,2013-10-27 16:27:00,
2013-10-27 09:32:00,52.2,45.2,29.90,SW,214,3.1,3.6,77,0.00,,,0.00,VWS V14.01,2013-10-27 16:32:00,
2013-10-27 09:37:00,52.3,45.7,29.90,West,270,2.7,2.7,78,0.00,,,0.00,VWS V14.01,2013-10-27 16:37:00,
2013-10-27 09:42:00,52.5,45.9,29.90,SW,214,4.0,4.0,78,0.00,,,0.00,VWS V14.01,2013-10-27 16:42:00,
2013-10-27 09:47:00,52.5,45.9,29.90,WSW,254,8.3,8.3,78,0.00,,,0.00,VWS V14.01,2013-10-27 16:47:00,
2013-10-27 09:52:00,52.5,45.9,29.90,WSW,250,3.6,5.8,78,0.00,,,0.00,VWS V14.01,2013-10-27 16:52:00,
2013-10-27 09:57:00,52.5,45.9,29.90,SW,223,8.3,8.3,78,0.00,,,0.00,VWS V14.01,2013-10-27 16:57:00,
2013-10-27 10:02:00,52.5,45.9,29.90,SW,220,8.1,8.1,78,0.00,,,0.00,VWS V14.01,2013-10-27 17:02:00,
2013-10-27 10:07:00,52.7,46.0,29.90,SW,231,8.1,8.1,78,0.00,,,0.00,VWS V14.01,2013-10-27 17:07:00,
2013-10-27 10:12:00,52.7,46.0,29.90,SW,235,5.8,5.8,78,0.00,,,0.00,VWS V14.01,2013-10-27 17:12:00,
2013-10-27 10:17:00,52.7,46.0,29.90,SW,221,3.6,6.3,78,0.00,,,0.00,VWS V14.01,2013-10-27 17:17:00,
2013-10-27 10:22:00,52.7,46.0,29.90,ESE,106,3.1,3.6,78,0.00,,,0.00,VWS V14.01,2013-10-27 17:22:00,
2013-10-27 10:27:00,52.7,46.0,29.90,SSW,213,2.7,2.7,78,0.00,,,0.00,VWS V14.01,2013-10-27 17:27:00,
2013-10-27 10:32:00,52.7,46.0,29.90,SSW,205,6.3,7.2,78,0.00,,,0.00,VWS V14.01,2013-10-27 17:32:00,
2013-10-27 10:37:00,52.9,46.2,29.90,SW,227,3.6,4.0,78,0.00,,,0.00,VWS V14.01,2013-10-27 17:37:00,
2013-10-27 10:42:00,52.9,46.2,29.90,SE,145,5.8,6.7,78,0.00,,,0.00,VWS V14.01,2013-10-27 17:42:00,
2013-10-27 10:47:00,52.9,45.9,29.90,SSW,203,4.9,5.8,77,0.00,,,0.00,VWS V14.01,2013-10-27 17:47:00,
2013-10-27 10:52:00,53.1,46.4,29.90,SSE,149,5.8,6.7,78,0.00,,,0.00,VWS V14.01,2013-10-27 17:52:00,
2013-10-27 10:57:00,53.2,46.2,29.90,WSW,253,5.8,5.8,77,0.00,,,0.00,VWS V14.01,2013-10-27 17:57:00,
2013-10-27 11:02:00,53.2,46.2,29.90,SSW,213,4.9,6.3,77,0.00,,,0.00,VWS V14.01,2013-10-27 18:02:00,
2013-10-27 11:07:00,53.4,46.4,29.90,SSW,192,5.8,5.8,77,0.00,,,0.00,VWS V14.01,2013-10-27 18:07:00,
2013-10-27 11:12:00,53.6,46.6,29.90,SSW,200,3.1,3.6,77,0.00,,,0.00,VWS V14.01,2013-10-27 18:12:00,
2013-10-27 11:17:00,53.6,46.2,29.90,SE,143,4.0,5.4,76,0.00,,,0.00,VWS V14.01,2013-10-27 18:17:00,
2013-10-27 11:22:00,53.8,46.4,29.90,SSE,149,4.0,4.9,76,0.00,,,0.00,VWS V14.01,2013-10-27 18:22:00,
2013-10-27 11:27:00,53.8,46.0,29.90,ESE,123,5.4,5.4,75,0.00,,,0.00,VWS V14.01,2013-10-27 18:27:00,
2013-10-27 11:32:00,54.0,46.2,29.90,SSW,209,4.5,4.5,75,0.00,,,0.00,VWS V14.01,2013-10-27 18:32:00,
2013-10-27 11:37:00,54.0,45.9,29.87,West,267,7.6,7.6,74,0.00,,,0.00,VWS V14.01,2013-10-27 18:37:00,
2013-10-27 11:42:00,54.1,46.0,29.87,West,268,4.9,4.9,74,0.00,,,0.00,VWS V14.01,2013-10-27 18:42:00,
2013-10-27 11:47:00,54.3,46.2,29.87,SSW,209,3.1,4.9,74,0.00,,,0.00,VWS V14.01,2013-10-27 18:47:00,
2013-10-27 11:52:00,54.5,46.0,29.87,SW,226,3.6,3.6,73,0.00,,,0.00,VWS V14.01,2013-10-27 18:52:00,
2013-10-27 11:57:00,54.5,45.7,29.87,South,187,7.6,7.6,72,0.00,,,0.00,VWS V14.01,2013-10-27 18:57:00,
2013-10-27 12:02:00,54.3,44.8,29.87,NNW,344,4.9,7.6,70,0.00,,,0.00,VWS V14.01,2013-10-27 19:02:00,
2013-10-27 12:07:00,54.3,44.0,29.87,SSW,193,4.0,4.0,68,0.00,,,0.00,VWS V14.01,2013-10-27 19:07:00,
2013-10-27 12:12:00,54.3,42.8,29.87,SW,223,11.0,11.0,65,0.00,,,0.00,VWS V14.01,2013-10-27 19:12:00,
2013-10-27 12:17:00,54.0,38.2,29.87,South,183,5.8,7.6,55,0.00,,,0.00,VWS V14.01,2013-10-27 19:17:00,
2013-10-27 12:22:00,54.0,36.3,29.87,West,260,7.6,9.6,51,0.00,,,0.00,VWS V14.01,2013-10-27 19:22:00,
2013-10-27 12:27:00,54.1,34.4,29.87,SSW,199,3.6,6.3,47,0.00,,,0.00,VWS V14.01,2013-10-27 19:27:00,
2013-10-27 12:32:00,54.1,33.3,29.87,South,186,8.7,8.7,45,0.00,,,0.00,VWS V14.01,2013-10-27 19:32:00,
2013-10-27 12:37:00,54.1,31.0,29.87,SSW,201,4.9,7.6,41,0.00,,,0.00,VWS V14.01,2013-10-27 19:37:00,
2013-10-27 12:42:00,54.3,30.5,29.87,SW,218,4.0,6.3,40,0.00,,,0.00,VWS V14.01,2013-10-27 19:42:00,
2013-10-27 12:47:00,54.3,30.5,29.87,SW,218,6.3,6.3,40,0.00,,,0.00,VWS V14.01,2013-10-27 19:47:00,
2013-10-27 12:52:00,54.5,30.1,29.87,WSW,246,12.3,12.3,39,0.00,,,0.00,VWS V14.01,2013-10-27 19:52:00,
2013-10-27 12:57:00,54.3,30.5,29.87,SSW,209,8.3,8.3,40,0.00,,,0.00,VWS V14.01,2013-10-27 19:57:00,
2013-10-27 13:02:00,54.3,30.5,29.87,SW,216,5.8,8.1,40,0.00,,,0.00,VWS V14.01,2013-10-27 20:02:00,
2013-10-27 13:07:00,54.3,30.5,29.87,SW,214,8.1,10.1,40,0.00,,,0.00,VWS V14.01,2013-10-27 20:07:00,
2013-10-27 13:12:00,54.0,29.6,29.87,South,190,5.4,10.1,39,0.00,,,0.00,VWS V14.01,2013-10-27 20:12:00,
2013-10-27 13:17:00,54.0,29.0,29.87,South,178,4.9,7.2,38,0.00,,,0.00,VWS V14.01,2013-10-27 20:17:00,
2013-10-27 13:22:00,54.1,28.5,29.84,West,275,7.6,7.6,37,0.00,,,0.00,VWS V14.01,2013-10-27 20:22:00,
2013-10-27 13:27:00,54.5,28.1,29.84,West,264,5.4,11.0,36,0.00,,,0.00,VWS V14.01,2013-10-27 20:27:00,
2013-10-27 13:32:00,54.5,28.1,29.84,South,190,3.6,8.7,36,0.00,,,0.00,VWS V14.01,2013-10-27 20:32:00,
2013-10-27 13:37:00,55.2,28.8,29.84,SSE,158,7.6,7.6,36,0.00,,,0.00,VWS V14.01,2013-10-27 20:37:00,
2013-10-27 13:42:00,55.2,26.6,29.84,West,263,10.5,10.5,33,0.00,,,0.00,VWS V14.01,2013-10-27 20:42:00,
2013-10-27 13:47:00,55.4,25.3,29.84,SSW,205,7.2,10.1,31,0.00,,,0.00,VWS V14.01,2013-10-27 20:47:00,
2013-10-27 13:52:00,55.8,25.6,29.84,ESE,111,5.4,7.6,31,0.00,,,0.00,VWS V14.01,2013-10-27 20:52:00,
2013-10-27 13:57:00,55.8,25.6,29.84,SW,222,5.8,8.3,31,0.00,,,0.00,VWS V14.01,2013-10-27 20:57:00,
2013-10-27 14:02:00,55.8,24.8,29.84,SSW,212,5.4,8.7,30,0.00,,,0.00,VWS V14.01,2013-10-27 21:02:00,
2013-10-27 14:07:00,55.9,26.5,29.84,South,185,3.6,8.7,32,0.00,,,0.00,VWS V14.01,2013-10-27 21:07:00,
2013-10-27 14:12:00,55.9,26.5,29.84,West,259,3.6,6.3,32,0.00,,,0.00,VWS V14.01,2013-10-27 21:12:00,
2013-10-27 14:17:00,56.1,26.7,29.84,SW,225,8.7,8.7,32,0.00,,,0.00,VWS V14.01,2013-10-27 21:17:00,
2013-10-27 14:22:00,56.5,28.5,29.81,SW,214,5.4,6.3,34,0.00,,,0.00,VWS V14.01,2013-10-27 21:22:00,
2013-10-27 14:27:00,56.8,24.9,29.81,WSW,243,8.7,8.7,29,0.00,,,0.00,VWS V14.01,2013-10-27 21:27:00,
2013-10-27 14:32:00,57.2,22.6,29.81,SW,230,8.3,8.3,26,0.00,,,0.00,VWS V14.01,2013-10-27 21:32:00,
2013-10-27 14:37:00,57.4,22.8,29.81,SW,223,4.0,8.1,26,0.00,,,0.00,VWS V14.01,2013-10-27 21:37:00,
2013-10-27 14:42:00,57.6,23.0,29.81,SSW,200,5.8,8.1,26,0.00,,,0.00,VWS V14.01,2013-10-27 21:42:00,
2013-10-27 14:47:00,57.6,23.0,29.81,SSW,202,5.8,10.5,26,0.00,,,0.00,VWS V14.01,2013-10-27 21:47:00,
2013-10-27 14:52:00,57.9,22.3,29.81,WSW,251,9.2,9.2,25,0.00,,,0.00,VWS V14.01,2013-10-27 21:52:00,
2013-10-27 14:57:00,57.9,22.3,29.81,WNW,294,7.6,8.3,25,0.00,,,0.00,VWS V14.01,2013-10-27 21:57:00,
2013-10-27 15:02:00,57.9,22.3,29.81,SW,229,8.7,8.7,25,0.00,,,0.00,VWS V14.01,2013-10-27 22:02:00,
2013-10-27 15:07:00,57.9,21.4,29.81,West,266,3.6,6.3,24,0.00,,,0.00,VWS V14.01,2013-10-27 22:07:00,
2013-10-27 15:12:00,57.9,21.4,29.81,SSW,202,5.8,8.7,24,0.00,,,0.00,VWS V14.01,2013-10-27 22:12:00,
2013-10-27 15:17:00,57.6,21.1,29.81,SW,221,8.1,13.2,24,0.00,,,0.00,VWS V14.01,2013-10-27 22:17:00,
2013-10-27 15:22:00,57.2,21.7,29.81,WSW,237,5.8,8.3,25,0.00,,,0.00,VWS V14.01,2013-10-27 22:22:00,
2013-10-27 15:27:00,57.0,21.6,29.81,SSW,199,11.0,11.0,25,0.00,,,0.00,VWS V14.01,2013-10-27 22:27:00,
2013-10-27 15:32:00,56.5,22.0,29.81,SSW,199,5.8,8.7,26,0.00,,,0.00,VWS V14.01,2013-10-27 22:32:00,
2013-10-27 15:37:00,55.9,22.5,29.78,SSW,211,8.3,11.0,27,0.00,,,0.00,VWS V14.01,2013-10-27 22:37:00,
2013-10-27 15:42:00,55.2,22.7,29.78,WSW,239,3.1,8.3,28,0.00,,,0.00,VWS V14.01,2013-10-27 22:42:00,
2013-10-27 15:47:00,54.9,22.4,29.78,SSW,206,8.3,8.7,28,0.00,,,0.00,VWS V14.01,2013-10-27 22:47:00,
2013-10-27 15:52:00,54.7,23.1,29.78,SW,222,8.7,9.2,29,0.00,,,0.00,VWS V14.01,2013-10-27 22:52:00,
2013-10-27 15:57:00,54.3,22.8,29.78,SSW,203,4.9,8.7,29,0.00,,,0.00,VWS V14.01,2013-10-27 22:57:00,
2013-10-27 16:02:00,54.3,23.6,29.78,SSW,202,5.8,8.3,30,0.00,,,0.00,VWS V14.01,2013-10-27 23:02:00,
2013-10-27 16:07:00,54.1,24.2,29.78,SW,235,6.3,6.3,31,0.00,,,0.00,VWS V14.01,2013-10-27 23:07:00,
2013-10-27 16:12:00,54.1,25.7,29.78,SW,216,5.8,8.1,33,0.00,,,0.00,VWS V14.01,2013-10-27 23:12:00,
2013-10-27 16:17:00,54.0,26.2,29.78,SSW,199,9.6,9.6,34,0.00,,,0.00,VWS V14.01,2013-10-27 23:17:00,
2013-10-27 16:22:00,53.8,26.8,29.78,SSW,212,10.5,10.5,35,0.00,,,0.00,VWS V14.01,2013-10-27 23:22:00,
2013-10-27 16:27:00,53.8,27.5,29.78,SSW,207,10.5,10.5,36,0.00,,,0.00,VWS V14.01,2013-10-27 23:27:00,
2013-10-27 16:32:00,53.6,27.3,29.78,SSW,198,8.3,9.2,36,0.00,,,0.00,VWS V14.01,2013-10-27 23:32:00,
2013-10-27 16:37:00,53.4,27.8,29.75,SW,225,7.6,10.5,37,0.00,,,0.00,VWS V14.01,2013-10-27 23:37:00,
2013-10-27 16:42:00,53.4,27.8,29.75,SW,222,7.6,8.3,37,0.00,,,0.00,VWS V14.01,2013-10-27 23:42:00,
2013-10-27 16:47:00,53.2,27.7,29.75,WSW,239,6.3,7.6,37,0.00,,,0.00,VWS V14.01,2013-10-27 23:47:00,
2013-10-27 16:52:00,53.2,27.7,29.75,South,181,4.0,6.7,37,0.00,,,0.00,VWS V14.01,2013-10-27 23:52:00,
2013-10-27 16:57:00,52.9,26.7,29.75,SW,226,5.4,10.5,36,0.00,,,0.00,VWS V14.01,2013-10-27 23:57:00,
2013-10-27 17:02:00,52.7,26.5,29.75,SSE,162,7.6,8.3,36,0.00,,,0.00,VWS V14.01,2013-10-28 00:02:00,
2013-10-27 17:07:00,52.7,26.5,29.75,SSW,211,7.6,12.8,36,0.00,,,0.00,VWS V14.01,2013-10-28 00:07:00,
2013-10-27 17:12:00,52.7,26.5,29.75,SW,228,8.7,10.5,36,0.00,,,0.00,VWS V14.01,2013-10-28 00:12:00,
2013-10-27 17:17:00,52.7,26.5,29.75,SSW,206,8.3,9.2,36,0.00,,,0.00,VWS V14.01,2013-10-28 00:17:00,
2013-10-27 17:22:00,52.7,27.2,29.72,SE,134,7.6,13.6,37,0.00,,,0.00,VWS V14.01,2013-10-28 00:22:00,
2013-10-27 17:27:00,52.5,27.0,29.72,WSW,241,5.4,8.3,37,0.00,,,0.00,VWS V14.01,2013-10-28 00:27:00,
2013-10-27 17:32:00,52.5,27.0,29.72,SW,230,10.5,10.5,37,0.00,,,0.00,VWS V14.01,2013-10-28 00:32:00,
2013-10-27 17:37:00,52.5,27.0,29.72,SSW,203,9.2,9.2,37,0.00,,,0.00,VWS V14.01,2013-10-28 00:37:00,
2013-10-27 17:42:00,52.5,27.0,29.72,WSW,244,8.7,10.5,37,0.00,,,0.00,VWS V14.01,2013-10-28 00:42:00,
2013-10-27 17:47:00,52.5,27.0,29.72,WSW,239,6.3,8.1,37,0.00,,,0.00,VWS V14.01,2013-10-28 00:47:00,
2013-10-27 17:52:00,52.3,26.9,29.72,SW,220,8.1,8.1,37,0.00,,,0.00,VWS V14.01,2013-10-28 00:52:00,
2013-10-27 17:57:00,52.3,26.9,29.72,SW,218,6.3,8.7,37,0.00,,,0.00,VWS V14.01,2013-10-28 00:57:00,
2013-10-27 18:02:00,52.3,26.9,29.72,SW,220,7.6,10.1,37,0.00,,,0.00,VWS V14.01,2013-10-28 01:02:00,
2013-10-27 18:07:00,52.3,26.9,29.72,SSW,199,11.0,11.0,37,0.00,,,0.00,VWS V14.01,2013-10-28 01:07:00,
2013-10-27 18:12:00,52.3,27.5,29.72,SW,217,8.1,12.8,38,0.00,,,0.00,VWS V14.01,2013-10-28 01:12:00,
2013-10-27 18:17:00,52.3,27.5,29.72,West,263,6.3,6.3,38,0.00,,,0.00,VWS V14.01,2013-10-28 01:17:00,
2013-10-27 18:22:00,52.3,27.5,29.69,SSW,207,8.7,12.3,38,0.00,,,0.00,VWS V14.01,2013-10-28 01:22:00,
2013-10-27 18:27:00,52.3,28.1,29.69,SW,229,6.7,6.7,39,0.00,,,0.00,VWS V14.01,2013-10-28 01:27:00,
2013-10-27 18:32:00,52.3,28.1,29.69,South,173,8.7,11.9,39,0.00,,,0.00,VWS V14.01,2013-10-28 01:32:00,
2013-10-27 18:37:00,52.5,28.3,29.69,SSW,201,5.8,10.5,39,0.00,,,0.00,VWS V14.01,2013-10-28 01:37:00,
2013-10-27 18:42:00,52.5,28.9,29.69,SW,229,5.8,8.7,40,0.00,,,0.00,VWS V14.01,2013-10-28 01:42:00,
2013-10-27 18:47:00,52.5,28.9,29.69,WSW,255,6.3,11.0,40,0.00,,,0.00,VWS V14.01,2013-10-28 01:47:00,
2013-10-27 18:52:00,52.7,29.1,29.69,South,183,6.7,8.7,40,0.00,,,0.00,VWS V14.01,2013-10-28 01:52:00,
2013-10-27 18:57:00,52.7,29.1,29.69,SSW,202,8.1,8.1,40,0.00,,,0.00,VWS V14.01,2013-10-28 01:57:00,
2013-10-27 19:02:00,52.7,29.1,29.69,SW,218,7.6,8.1,40,0.00,,,0.00,VWS V14.01,2013-10-28 02:02:00,
2013-10-27 19:07:00,52.5,28.9,29.66,SSW,203,6.3,7.6,40,0.00,,,0.00,VWS V14.01,2013-10-28 02:07:00,
2013-10-27 19:12:00,52.5,28.9,29.66,SW,235,5.8,5.8,40,0.00,,,0.00,VWS V14.01,2013-10-28 02:12:00,
2013-10-27 19:17:00,52.3,28.8,29.66,West,261,6.3,6.3,40,0.00,,,0.00,VWS V14.01,2013-10-28 02:17:00,
2013-10-27 19:22:00,52.3,28.8,29.69,WNW,286,8.7,8.7,40,0.00,,,0.00,VWS V14.01,2013-10-28 02:22:00,
2013-10-27 19:27:00,52.3,28.8,29.69,SW,227,5.4,8.7,40,0.00,,,0.00,VWS V14.01,2013-10-28 02:27:00,
2013-10-27 19:32:00,52.5,28.9,29.69,SSW,203,7.6,7.6,40,0.00,,,0.00,VWS V14.01,2013-10-28 02:32:00,
2013-10-27 19:37:00,52.7,29.1,29.69,South,191,8.1,8.1,40,0.00,,,0.00,VWS V14.01,2013-10-28 02:37:00,
2013-10-27 19:42:00,52.9,29.8,29.69,WSW,243,4.0,5.8,41,0.00,,,0.00,VWS V14.01,2013-10-28 02:42:00,
2013-10-27 19:47:00,52.9,29.8,29.69,SW,214,4.9,6.7,41,0.00,,,0.00,VWS V14.01,2013-10-28 02:47:00,
2013-10-27 19:52:00,52.9,29.8,29.69,SW,214,8.1,8.1,41,0.00,,,0.00,VWS V14.01,2013-10-28 02:52:00,
2013-10-27 19:57:00,52.9,28.6,29.69,South,188,4.0,6.3,39,0.00,,,0.00,VWS V14.01,2013-10-28 02:57:00,
2013-10-27 20:02:00,52.7,28.5,29.69,SW,224,6.3,7.6,39,0.00,,,0.00,VWS V14.01,2013-10-28 03:02:00,
2013-10-27 20:07:00,52.7,29.7,29.66,West,279,11.4,11.4,41,0.00,,,0.00,VWS V14.01,2013-10-28 03:07:00,
2013-10-27 20:12:00,52.9,31.0,29.66,WSW,254,3.1,6.3,43,0.00,,,0.00,VWS V14.01,2013-10-28 03:12:00,
2013-10-27 20:17:00,53.1,32.8,29.66,WSW,246,7.6,8.1,46,0.00,,,0.00,VWS V14.01,2013-10-28 03:17:00,
2013-10-27 20:22:00,52.9,33.2,29.66,SSW,203,8.7,9.6,47,0.00,,,0.00,VWS V14.01,2013-10-28 03:22:00,
2013-10-27 20:27:00,52.9,33.2,29.66,SW,224,7.6,8.7,47,0.00,,,0.00,VWS V14.01,2013-10-28 03:27:00,
2013-10-27 20:32:00,52.9,32.7,29.66,SW,233,5.4,8.3,46,0.00,,,0.00,VWS V14.01,2013-10-28 03:32:00,
2013-10-27 20:37:00,52.9,32.7,29.66,South,183,8.3,8.3,46,0.00,,,0.00,VWS V14.01,2013-10-28 03:37:00,
2013-10-27 20:42:00,52.7,32.5,29.66,South,177,6.3,11.0,46,0.00,,,0.00,VWS V14.01,2013-10-28 03:42:00,
2013-10-27 20:47:00,52.7,32.5,29.66,SW,218,7.6,7.6,46,0.00,,,0.00,VWS V14.01,2013-10-28 03:47:00,
2013-10-27 20:52:00,52.5,32.9,29.66,WSW,239,3.1,8.7,47,0.00,,,0.00,VWS V14.01,2013-10-28 03:52:00,
2013-10-27 20:57:00,52.5,32.9,29.66,WSW,249,8.7,8.7,47,0.00,,,0.00,VWS V14.01,2013-10-28 03:57:00,
2013-10-27 21:01:00,52.3,32.7,29.66,SW,219,8.7,8.7,47,0.00,,,0.00,VWS V14.01,2013-10-28 04:01:00,
2013-10-27 21:06:00,52.3,32.7,29.66,SW,219,7.6,10.5,47,0.00,,,0.00,VWS V14.01,2013-10-28 04:06:00,
2013-10-27 21:11:00,52.3,32.7,29.66,SW,226,8.1,8.3,47,0.00,,,0.00,VWS V14.01,2013-10-28 04:11:00,
2013-10-27 21:16:00,52.2,32.6,29.66,SSW,192,8.3,10.1,47,0.00,,,0.00,VWS V14.01,2013-10-28 04:16:00,
2013-10-27 21:21:00,52.2,32.6,29.66,West,265,11.0,11.0,47,0.00,,,0.00,VWS V14.01,2013-10-28 04:21:00,
2013-10-27 21:26:00,52.2,32.6,29.66,WSW,252,5.8,5.8,47,0.00,,,0.00,VWS V14.01,2013-10-28 04:26:00,
2013-10-27 21:31:00,52.2,32.6,29.66,West,271,4.9,4.9,47,0.00,,,0.00,VWS V14.01,2013-10-28 04:31:00,
2013-10-27 21:36:00,52.0,32.4,29.66,SW,234,5.8,5.8,47,0.00,,,0.00,VWS V14.01,2013-10-28 04:36:00,
2013-10-27 21:41:00,52.0,31.9,29.66,SSW,204,5.4,5.4,46,0.00,,,0.00,VWS V14.01,2013-10-28 04:41:00,
2013-10-27 21:46:00,52.0,31.9,29.66,South,186,4.9,8.3,46,0.00,,,0.00,VWS V14.01,2013-10-28 04:46:00,
2013-10-27 21:51:00,52.0,31.9,29.66,SW,215,5.8,8.1,46,0.00,,,0.00,VWS V14.01,2013-10-28 04:51:00,
2013-10-27 21:56:00,51.8,31.7,29.66,SW,224,5.4,6.3,46,0.00,,,0.00,VWS V14.01,2013-10-28 04:56:00,
2013-10-27 22:01:00,51.8,31.1,29.66,WSW,248,5.4,5.4,45,0.00,,,0.00,VWS V14.01,2013-10-28 05:01:00,
2013-10-27 22:06:00,51.8,30.6,29.66,SSW,213,4.9,6.3,44,0.00,,,0.00,VWS V14.01,2013-10-28 05:06:00,
2013-10-27 22:11:00,51.6,30.4,29.66,SSW,207,6.3,6.3,44,0.00,,,0.00,VWS V14.01,2013-10-28 05:11:00,
2013-10-27 22:16:00,51.6,29.9,29.66,SW,225,4.0,5.8,43,0.00,,,0.00,VWS V14.01,2013-10-28 05:16:00,
2013-10-27 22:21:00,51.6,29.3,29.66,SSW,205,3.6,3.6,42,0.00,,,0.00,VWS V14.01,2013-10-28 05:21:00,
2013-10-27 22:26:00,51.4,28.5,29.66,SW,217,5.8,5.8,41,0.00,,,0.00,VWS V14.01,2013-10-28 05:26:00,
2013-10-27 22:31:00,51.4,27.9,29.66,SW,222,8.1,8.1,40,0.00,,,0.00,VWS V14.01,2013-10-28 05:31:00,
2013-10-27 22:36:00,51.3,27.2,29.63,SSW,203,5.4,7.6,39,0.00,,,0.00,VWS V14.01,2013-10-28 05:36:00,
2013-10-27 22:41:00,51.4,26.7,29.63,SSW,209,3.6,6.3,38,0.00,,,0.00,VWS V14.01,2013-10-28 05:41:00,
2013-10-27 22:46:00,51.4,26.7,29.63,WSW,248,2.7,2.7,38,0.00,,,0.00,VWS V14.01,2013-10-28 05:46:00,
2013-10-27 22:51:00,51.4,26.7,29.66,SW,220,0.0,0.0,38,0.00,,,0.00,VWS V14.01,2013-10-28 05:51:00,
2013-10-27 22:56:00,51.3,26.5,29.66,SSW,197,3.6,4.9,38,0.00,,,0.00,VWS V14.01,2013-10-28 05:56:00,
2013-10-27 23:01:00,51.3,25.9,29.66,West,266,3.1,4.0,37,0.00,,,0.00,VWS V14.01,2013-10-28 06:01:00,
2013-10-27 23:06:00,51.3,25.9,29.66,West,280,4.9,5.4,37,0.00,,,0.00,VWS V14.01,2013-10-28 06:06:00,
2013-10-27 23:11:00,51.3,25.2,29.66,NW,315,5.4,5.4,36,0.00,,,0.00,VWS V14.01,2013-10-28 06:11:00,
2013-10-27 23:16:00,51.3,24.6,29.66,WSW,248,8.1,8.1,35,0.00,,,0.00,VWS V14.01,2013-10-28 06:16:00,
2013-10-27 23:21:00,51.3,23.2,29.63,WNW,298,8.7,8.7,33,0.00,,,0.00,VWS V14.01,2013-10-28 06:21:00,
2013-10-27 23:26:00,51.4,22.6,29.63,West,272,6.3,8.1,32,0.00,,,0.00,VWS V14.01,2013-10-28 06:26:00,
2013-10-27 23:31:00,51.3,22.4,29.63,WSW,240,3.1,3.6,32,0.00,,,0.00,VWS V14.01,2013-10-28 06:31:00,
2013-10-27 23:36:00,51.3,22.4,29.63,SSW,210,3.1,5.4,32,0.00,,,0.00,VWS V14.01,2013-10-28 06:36:00,
2013-10-27 23:41:00,51.1,22.3,29.63,WSW,246,4.9,7.6,32,0.00,,,0.00,VWS V14.01,2013-10-28 06:41:00,
2013-10-27 23:46:00,51.1,22.3,29.63,SW,224,2.2,3.6,32,0.00,,,0.00,VWS V14.01,2013-10-28 06:46:00,
2013-10-27 23:51:00,51.1,22.3,29.63,SSW,212,5.8,5.8,32,0.00,,,0.00,VWS V14.01,2013-10-28 06:51:00,
2013-10-27 23:56:00,51.1,23.0,29.63,SW,215,3.6,3.6,33,0.00,,,0.00,VWS V14.01,2013-10-28 06:56:00,